Time;durP1;ratioP1;P1;durP2;ratioP2;P2;SDS_P1;SDS_P2;PMS_P1;PMS_P2;Temp;Humidity;BMP_temperature;BMP_pressure;BME280_temperature;BME280_humidity;BME280_pressure;Samples;Min_cycle;Max_cycle;Signal;HPM_P1;HPM_P2
2023/07/17 00:00:37;;;;;;;10.35;2.92;;;17.30;99.90;;;;;;5112305;28;20035;-79
2023/07/17 00:03:04;;;;;;;11.93;2.83;;;17.30;99.90;;;;;;5099162;28;20043;-79
2023/07/17 00:05:30;;;;;;;10.18;2.63;;;17.30;99.90;;;;;;5114360;28;20036;-79
2023/07/17 00:07:55;;;;;;;12.57;3.20;;;17.30;99.90;;;;;;5119105;28;20512;-79
2023/07/17 00:10:21;;;;;;;10.20;2.90;;;17.30;99.90;;;;;;5116513;28;20044;-78
2023/07/17 00:12:47;;;;;;;9.85;2.70;;;17.30;99.90;;;;;;5100006;28;20043;-78
2023/07/17 00:15:13;;;;;;;11.57;2.72;;;17.20;99.90;;;;;;5098833;28;20040;-79
2023/07/17 00:17:38;;;;;;;13.23;3.28;;;17.20;99.90;;;;;;5115616;28;20047;-80
2023/07/17 00:20:11;;;;;;;17.50;2.95;;;17.30;99.90;;;;;;5119013;28;20031;-78
2023/07/17 00:22:37;;;;;;;12.88;4.05;;;17.20;99.90;;;;;;5118577;28;20047;-79
2023/07/17 00:25:04;;;;;;;7.13;2.67;;;17.20;99.90;;;;;;5100492;28;20047;-79
2023/07/17 00:27:30;;;;;;;15.05;3.67;;;17.20;99.90;;;;;;5098708;28;20044;-79
2023/07/17 00:29:56;;;;;;;16.80;3.92;;;17.30;99.90;;;;;;5117467;28;20177;-79
2023/07/17 00:32:22;;;;;;;19.13;3.80;;;17.20;99.90;;;;;;5100676;28;20133;-78
2023/07/17 00:34:48;;;;;;;11.75;2.88;;;17.20;99.90;;;;;;5118528;28;20088;-78
2023/07/17 00:37:14;;;;;;;9.95;2.53;;;17.20;99.90;;;;;;5119801;28;20040;-78
2023/07/17 00:39:40;;;;;;;11.73;3.42;;;17.30;99.90;;;;;;5100849;28;20123;-79
2023/07/17 00:42:07;;;;;;;11.73;3.47;;;17.30;99.90;;;;;;5114692;28;20058;-78
2023/07/17 00:44:35;;;;;;;15.15;3.20;;;17.30;99.90;;;;;;5117279;28;20048;-78
2023/07/17 00:47:01;;;;;;;11.93;3.17;;;17.30;99.90;;;;;;5112991;28;20043;-77
2023/07/17 00:49:29;;;;;;;12.25;3.10;;;17.30;99.90;;;;;;5113495;28;20044;-78
2023/07/17 00:51:57;;;;;;;11.63;2.92;;;17.20;99.90;;;;;;5119347;28;20047;-78
2023/07/17 00:54:22;;;;;;;8.93;3.00;;;17.20;99.90;;;;;;5118187;28;20047;-79
2023/07/17 00:56:48;;;;;;;16.52;3.47;;;17.10;99.90;;;;;;5113175;28;20497;-78
2023/07/17 00:59:16;;;;;;;10.23;3.40;;;17.10;99.90;;;;;;5101906;28;20066;-78
2023/07/17 01:01:43;;;;;;;12.15;3.58;;;17.10;99.90;;;;;;5100335;28;20450;-77
2023/07/17 01:04:09;;;;;;;13.25;3.47;;;17.00;99.90;;;;;;5117599;28;20048;-78
2023/07/17 01:06:39;;;;;;;8.73;3.28;;;17.00;99.90;;;;;;5081193;28;20048;-79
2023/07/17 01:09:09;;;;;;;8.63;2.58;;;16.90;99.90;;;;;;5098630;28;20067;-77
2023/07/17 01:11:35;;;;;;;7.30;2.55;;;16.80;99.90;;;;;;5098226;28;20092;-78
2023/07/17 01:14:00;;;;;;;7.70;2.75;;;16.80;99.90;;;;;;5115770;28;20420;-78
2023/07/17 01:16:26;;;;;;;7.50;2.47;;;16.70;99.90;;;;;;5118463;28;20040;-78
2023/07/17 01:18:52;;;;;;;8.02;1.90;;;16.70;99.90;;;;;;5100185;28;20430;-78
2023/07/17 01:21:21;;;;;;;8.45;3.22;;;16.60;99.90;;;;;;5116704;28;20036;-77
2023/07/17 01:23:47;;;;;;;6.85;2.38;;;16.60;99.90;;;;;;5121416;28;20038;-78
2023/07/17 01:26:17;;;;;;;6.03;2.03;;;16.50;99.90;;;;;;5105562;28;20052;-78
2023/07/17 01:28:44;;;;;;;7.95;2.55;;;16.50;99.90;;;;;;5106674;28;20571;-78
2023/07/17 01:31:11;;;;;;;7.30;2.60;;;16.50;99.90;;;;;;5117658;28;20039;-77
2023/07/17 01:33:37;;;;;;;5.90;2.40;;;16.40;99.90;;;;;;5116719;28;20114;-79
2023/07/17 01:36:04;;;;;;;6.60;2.30;;;16.40;99.90;;;;;;5107527;28;20059;-78
2023/07/17 01:38:30;;;;;;;12.18;2.50;;;16.40;99.90;;;;;;5115086;28;20044;-79
2023/07/17 01:40:56;;;;;;;6.63;2.50;;;16.40;99.90;;;;;;5112820;28;20044;-78
2023/07/17 01:43:22;;;;;;;8.23;3.08;;;16.30;99.90;;;;;;5096980;28;20119;-78
2023/07/17 01:45:47;;;;;;;7.88;2.28;;;16.30;99.90;;;;;;5113919;28;20039;-79
2023/07/17 01:48:17;;;;;;;7.47;2.72;;;16.30;99.90;;;;;;5093369;28;20040;-78
2023/07/17 01:50:46;;;;;;;8.23;2.83;;;16.30;99.90;;;;;;5113170;28;20083;-78
2023/07/17 01:53:12;;;;;;;8.38;2.75;;;16.30;99.90;;;;;;5111690;28;20084;-77
2023/07/17 01:55:38;;;;;;;10.07;2.70;;;16.30;99.90;;;;;;5096654;28;20043;-79
2023/07/17 01:58:04;;;;;;;6.75;2.40;;;16.30;99.90;;;;;;5113186;28;20097;-79
2023/07/17 02:00:29;;;;;;;9.00;2.70;;;16.80;99.90;;;;;;5112460;28;20083;-78
2023/07/17 02:02:55;;;;;;;8.73;2.63;;;16.30;99.90;;;;;;5117223;28;20518;-76
2023/07/17 02:05:21;;;;;;;9.10;2.60;;;16.30;99.90;;;;;;5114546;28;20085;-79
2023/07/17 02:07:47;;;;;;;8.68;2.67;;;16.30;99.90;;;;;;5116075;28;20145;-78
2023/07/17 02:10:13;;;;;;;9.10;3.15;;;16.20;99.90;;;;;;5112331;28;20052;-77
2023/07/17 02:12:38;;;;;;;6.13;2.50;;;16.20;99.90;;;;;;5113755;28;20044;-77
2023/07/17 02:15:06;;;;;;;9.75;2.50;;;16.20;99.90;;;;;;5106505;28;20042;-78
2023/07/17 02:17:32;;;;;;;8.88;2.78;;;16.20;99.90;;;;;;5096016;28;20075;-78
2023/07/17 02:19:58;;;;;;;9.80;3.03;;;16.20;99.90;;;;;;5114371;28;20108;-78
2023/07/17 02:22:24;;;;;;;7.00;3.17;;;16.20;99.90;;;;;;5116264;28;20079;-77
2023/07/17 02:24:52;;;;;;;7.75;2.72;;;16.20;99.90;;;;;;5116888;28;20052;-77
2023/07/17 02:27:18;;;;;;;9.60;3.50;;;16.20;99.90;;;;;;5105301;28;20031;-78
2023/07/17 02:29:43;;;;;;;6.97;2.60;;;16.20;99.90;;;;;;5113798;28;20379;-77
2023/07/17 02:32:09;;;;;;;10.18;2.47;;;16.10;99.90;;;;;;5105996;28;20077;-78
2023/07/17 02:34:35;;;;;;;10.98;2.85;;;16.10;99.90;;;;;;5097885;28;20042;-77
2023/07/17 02:37:00;;;;;;;6.68;2.72;;;16.00;99.90;;;;;;5116505;28;20032;-77
2023/07/17 02:39:26;;;;;;;7.32;3.05;;;16.00;99.90;;;;;;5081858;28;20035;-78
2023/07/17 02:41:51;;;;;;;8.65;2.47;;;16.00;99.90;;;;;;5114376;28;20112;-76
2023/07/17 02:44:17;;;;;;;9.88;3.45;;;15.90;99.90;;;;;;5110095;28;20439;-79
2023/07/17 02:46:43;;;;;;;6.18;2.80;;;15.80;99.90;;;;;;5107792;28;20052;-78
2023/07/17 02:49:11;;;;;;;12.68;3.25;;;15.90;99.90;;;;;;5110204;28;20061;-79
2023/07/17 02:51:37;;;;;;;8.15;2.92;;;15.90;99.90;;;;;;5096006;28;20040;-77
2023/07/17 02:54:03;;;;;;;8.30;2.88;;;15.90;99.90;;;;;;5115232;28;20046;-76
2023/07/17 02:56:28;;;;;;;7.70;3.00;;;15.80;99.90;;;;;;5114357;28;20047;-78
2023/07/17 02:58:54;;;;;;;8.38;3.00;;;15.80;99.90;;;;;;5113964;28;20540;-78
2023/07/17 03:01:20;;;;;;;9.15;3.05;;;15.80;99.90;;;;;;5106037;28;20044;-77
2023/07/17 03:03:46;;;;;;;11.07;3.33;;;15.80;99.90;;;;;;5089584;28;20035;-77
2023/07/17 03:06:12;;;;;;;12.57;3.10;;;15.80;99.90;;;;;;5108435;28;20044;-77
2023/07/17 03:08:38;;;;;;;7.95;3.22;;;15.80;99.90;;;;;;5106305;28;20048;-78
2023/07/17 03:11:04;;;;;;;9.95;3.20;;;15.90;99.90;;;;;;5112292;28;20035;-77
2023/07/17 03:13:31;;;;;;;11.30;3.92;;;15.70;99.90;;;;;;5098534;28;20652;-78
2023/07/17 03:15:59;;;;;;;9.77;3.72;;;15.80;99.90;;;;;;5106503;28;20040;-77
2023/07/17 03:18:25;;;;;;;8.60;3.78;;;15.70;99.90;;;;;;5115548;28;20477;-78
2023/07/17 03:20:52;;;;;;;12.20;3.47;;;15.70;99.90;;;;;;5114241;28;20071;-77
2023/07/17 03:23:17;;;;;;;8.85;3.53;;;15.70;99.90;;;;;;5113122;28;20468;-77
2023/07/17 03:25:43;;;;;;;12.07;3.92;;;15.70;99.90;;;;;;5100698;28;20040;-77
2023/07/17 03:28:09;;;;;;;8.13;2.70;;;15.70;99.90;;;;;;5100229;28;20050;-77
2023/07/17 03:30:35;;;;;;;11.05;3.08;;;15.70;99.90;;;;;;5109829;28;20040;-79
2023/07/17 03:33:01;;;;;;;12.93;3.60;;;15.70;99.90;;;;;;5110276;28;20157;-77
2023/07/17 03:35:27;;;;;;;10.15;3.17;;;15.70;99.90;;;;;;5099585;28;20088;-77
2023/07/17 03:37:53;;;;;;;7.75;3.08;;;15.70;99.90;;;;;;5115944;28;20039;-77
2023/07/17 03:40:18;;;;;;;9.20;2.80;;;15.70;99.90;;;;;;5104644;28;20036;-77
2023/07/17 03:42:44;;;;;;;9.05;3.28;;;15.70;99.90;;;;;;5113257;28;20047;-78
2023/07/17 03:45:10;;;;;;;9.32;3.17;;;15.70;99.90;;;;;;5112298;28;20032;-78
2023/07/17 03:47:36;;;;;;;10.43;3.30;;;15.70;99.90;;;;;;5111974;28;20043;-78
2023/07/17 03:50:02;;;;;;;10.90;3.40;;;15.60;99.90;;;;;;5086136;28;20048;-78
2023/07/17 03:52:28;;;;;;;11.25;3.00;;;15.60;99.90;;;;;;5093999;28;20443;-78
2023/07/17 03:54:53;;;;;;;8.75;2.95;;;15.70;99.90;;;;;;5108132;28;20044;-78
2023/07/17 03:57:20;;;;;;;11.98;3.35;;;15.60;99.90;;;;;;5113710;28;20043;-77
2023/07/17 03:59:55;;;;;;;12.93;3.00;;;15.60;99.90;;;;;;5110812;28;20036;-77
2023/07/17 04:02:21;;;;;;;9.65;3.17;;;15.60;99.90;;;;;;5101233;28;20156;-78
2023/07/17 04:04:47;;;;;;;12.20;2.95;;;15.60;99.90;;;;;;5109802;28;20044;-77
2023/07/17 04:07:13;;;;;;;10.07;2.83;;;15.60;99.90;;;;;;5112339;28;20055;-77
2023/07/17 04:09:39;;;;;;;9.55;3.10;;;15.50;99.90;;;;;;5112978;28;20039;-79
2023/07/17 04:12:05;;;;;;;8.70;3.20;;;15.50;99.90;;;;;;5111939;28;20046;-78
2023/07/17 04:14:32;;;;;;;11.27;3.17;;;15.50;99.90;;;;;;5113884;28;20043;-78
2023/07/17 04:16:58;;;;;;;14.88;3.45;;;15.50;99.90;;;;;;5110154;28;20373;-78
2023/07/17 04:19:23;;;;;;;10.07;2.83;;;15.50;99.90;;;;;;5077307;28;20040;-77
2023/07/17 04:21:49;;;;;;;12.23;3.55;;;15.50;99.90;;;;;;5108931;28;20092;-78
2023/07/17 04:24:15;;;;;;;9.57;2.75;;;15.40;99.90;;;;;;5115735;28;20047;-77
2023/07/17 04:26:40;;;;;;;11.23;3.10;;;15.40;99.90;;;;;;5079850;28;20042;-77
2023/07/17 04:29:10;;;;;;;10.52;2.95;;;15.40;99.90;;;;;;5109907;28;20035;-76
2023/07/17 04:31:36;;;;;;;8.50;2.92;;;15.40;99.90;;;;;;5093731;28;20485;-77
2023/07/17 04:34:02;;;;;;;9.35;2.72;;;15.40;99.90;;;;;;5115562;28;20486;-77
2023/07/17 04:36:28;;;;;;;8.40;2.70;;;15.40;99.90;;;;;;5113922;28;20031;-78
2023/07/17 04:38:54;;;;;;;13.23;3.80;;;15.40;99.90;;;;;;5111443;27;20517;-78
2023/07/17 04:41:19;;;;;;;11.32;4.07;;;15.50;99.90;;;;;;5095269;28;20044;-77
2023/07/17 04:43:45;;;;;;;11.73;3.20;;;15.50;99.90;;;;;;5116016;28;20032;-78
2023/07/17 04:46:11;;;;;;;10.25;3.00;;;15.50;99.90;;;;;;5098216;28;20043;-77
2023/07/17 04:48:36;;;;;;;13.43;3.47;;;15.60;99.90;;;;;;5119059;28;20446;-76
2023/07/17 04:51:02;;;;;;;10.10;3.05;;;15.50;99.90;;;;;;5115096;28;20035;-76
2023/07/17 04:53:28;;;;;;;9.60;2.92;;;15.60;99.90;;;;;;5115302;28;20074;-76
2023/07/17 04:55:55;;;;;;;11.82;3.67;;;15.70;99.90;;;;;;5118251;28;20508;-76
2023/07/17 04:58:20;;;;;;;10.33;3.10;;;15.70;99.90;;;;;;5098735;28;20047;-77
2023/07/17 05:00:47;;;;;;;9.52;3.00;;;15.70;99.90;;;;;;5084376;28;20293;-77
2023/07/17 05:03:13;;;;;;;11.80;3.22;;;16.00;99.90;;;;;;5111205;28;20474;-77
2023/07/17 05:05:40;;;;;;;12.38;3.15;;;15.80;99.90;;;;;;5112065;28;20113;-77
2023/07/17 05:08:05;;;;;;;13.82;3.53;;;15.80;99.90;;;;;;5117467;28;20052;-78
2023/07/17 05:10:31;;;;;;;14.63;3.00;;;15.90;99.90;;;;;;5114376;28;20047;-76
2023/07/17 05:12:59;;;;;;;11.45;3.30;;;16.00;99.90;;;;;;5089190;28;20161;-78
2023/07/17 05:15:24;;;;;;;11.40;3.40;;;16.00;99.90;;;;;;5116405;28;20045;-77
2023/07/17 05:17:50;;;;;;;11.60;2.78;;;16.10;99.90;;;;;;5096319;28;20296;-79
2023/07/17 05:20:16;;;;;;;11.57;2.90;;;16.20;99.90;;;;;;5079673;28;20051;-76
2023/07/17 05:22:41;;;;;;;9.10;3.60;;;16.20;99.90;;;;;;5113344;28;20046;-78
2023/07/17 05:25:07;;;;;;;12.52;2.88;;;16.30;99.90;;;;;;5089439;28;20051;-77
2023/07/17 05:27:33;;;;;;;10.27;3.45;;;16.40;99.90;;;;;;5097302;28;20040;-77
2023/07/17 05:29:58;;;;;;;11.40;3.05;;;16.50;99.90;;;;;;5112815;28;20040;-78
2023/07/17 05:32:24;;;;;;;13.02;3.83;;;16.60;99.90;;;;;;5114378;28;20035;-78
2023/07/17 05:34:50;;;;;;;8.85;2.90;;;16.60;99.90;;;;;;5112081;28;20122;-78
2023/07/17 05:37:18;;;;;;;14.05;3.25;;;16.70;99.90;;;;;;5112667;28;20073;-77
2023/07/17 05:39:44;;;;;;;12.57;3.60;;;16.80;99.90;;;;;;5112307;28;20058;-78
2023/07/17 05:42:10;;;;;;;10.93;3.53;;;16.80;99.90;;;;;;5107817;28;20487;-78
2023/07/17 05:44:35;;;;;;;9.70;3.13;;;16.90;99.90;;;;;;5115674;28;20042;-78
2023/07/17 05:47:01;;;;;;;15.55;3.20;;;17.00;99.90;;;;;;5114167;28;20036;-78
2023/07/17 05:49:27;;;;;;;12.63;3.35;;;17.20;99.90;;;;;;5111426;28;20028;-78
2023/07/17 05:51:53;;;;;;;11.35;3.80;;;17.30;99.90;;;;;;5115211;28;20099;-78
2023/07/17 05:54:19;;;;;;;12.23;3.30;;;17.50;99.90;;;;;;5115611;28;20039;-78
2023/07/17 05:56:44;;;;;;;10.85;4.00;;;17.80;99.90;;;;;;5092608;28;20044;-78
2023/07/17 05:59:10;;;;;;;13.55;3.47;;;18.00;99.90;;;;;;5098569;28;20434;-78
2023/07/17 06:01:36;;;;;;;14.90;3.53;;;18.10;99.90;;;;;;5112808;28;20039;-79
2023/07/17 06:04:02;;;;;;;12.55;3.78;;;18.10;99.90;;;;;;5081702;28;20051;-78
2023/07/17 06:06:29;;;;;;;10.93;3.30;;;18.10;99.90;;;;;;5116713;28;20047;-79
2023/07/17 06:09:00;;;;;;;15.05;4.47;;;18.00;99.90;;;;;;5114144;28;20630;-79
2023/07/17 06:11:25;;;;;;;14.25;3.83;;;18.00;99.90;;;;;;5101399;28;20070;-80
2023/07/17 06:13:51;;;;;;;14.27;3.83;;;18.20;99.90;;;;;;5092936;28;20046;-81
2023/07/17 06:16:17;;;;;;;14.32;3.83;;;18.50;99.90;;;;;;5099629;28;20051;-80
2023/07/17 06:18:43;;;;;;;12.10;3.47;;;18.90;99.90;;;;;;5115819;28;20051;-80
2023/07/17 06:21:08;;;;;;;16.00;4.40;;;19.20;99.90;;;;;;5096109;28;20035;-79
2023/07/17 06:23:37;;;;;;;12.55;4.22;;;19.30;99.90;;;;;;5116153;28;20042;-79
2023/07/17 06:26:04;;;;;;;16.10;4.30;;;19.30;99.90;;;;;;5118127;28;20035;-81
2023/07/17 06:28:30;;;;;;;13.37;4.03;;;19.30;99.90;;;;;;5100414;28;20131;-79
2023/07/17 06:30:56;;;;;;;16.40;4.72;;;19.20;99.90;;;;;;5120050;28;20024;-79
2023/07/17 06:33:25;;;;;;;14.82;4.47;;;19.20;99.90;;;;;;5117392;28;20039;-78
2023/07/17 06:35:51;;;;;;;14.40;4.65;;;19.10;99.90;;;;;;5116737;28;20532;-81
2023/07/17 06:38:16;;;;;;;13.10;5.03;;;19.20;99.90;;;;;;5110140;28;20078;-79
2023/07/17 06:40:42;;;;;;;18.20;5.20;;;19.20;99.90;;;;;;5118227;28;20035;-79
2023/07/17 06:43:08;;;;;;;12.20;4.53;;;19.10;99.90;;;;;;5114559;28;20055;-80
2023/07/17 06:45:35;;;;;;;12.43;4.50;;;19.10;99.90;;;;;;5097117;28;20038;-80
2023/07/17 06:48:00;;;;;;;16.98;4.82;;;19.20;99.90;;;;;;5098849;28;20083;-79
2023/07/17 06:50:26;;;;;;;13.98;4.78;;;19.10;99.90;;;;;;5109063;28;20043;-79
2023/07/17 06:52:52;;;;;;;12.90;4.50;;;19.20;99.90;;;;;;5077107;28;20040;-80
2023/07/17 06:55:17;;;;;;;13.45;4.68;;;19.30;99.90;;;;;;5118137;28;20123;-79
2023/07/17 06:57:44;;;;;;;13.70;4.80;;;19.30;99.90;;;;;;5099389;28;20047;-80
2023/07/17 07:00:10;;;;;;;11.20;4.45;;;19.20;99.90;;;;;;5089236;28;20402;-80
2023/07/17 07:02:36;;;;;;;16.67;4.40;;;19.20;99.90;;;;;;5081970;28;20126;-79
2023/07/17 07:05:02;;;;;;;11.10;4.32;;;19.30;99.90;;;;;;5092988;28;20048;-78
2023/07/17 07:07:27;;;;;;;13.30;4.68;;;19.30;99.90;;;;;;5104974;28;20112;-78
2023/07/17 07:09:54;;;;;;;12.98;4.43;;;19.30;99.90;;;;;;5123142;28;20073;-78
2023/07/17 07:12:20;;;;;;;19.48;5.07;;;19.20;99.90;;;;;;5124411;28;20021;-78
2023/07/17 07:14:46;;;;;;;12.43;4.32;;;19.10;99.90;;;;;;5122754;28;20046;-78
2023/07/17 07:17:12;;;;;;;15.80;4.40;;;19.00;99.90;;;;;;5087589;28;20048;-80
2023/07/17 07:19:38;;;;;;;11.27;4.70;;;18.90;99.90;;;;;;5121513;28;20405;-78
2023/07/17 07:22:04;;;;;;;14.60;4.68;;;18.90;99.90;;;;;;5096347;28;20039;-79
2023/07/17 07:24:29;;;;;;;14.60;5.43;;;18.80;99.90;;;;;;5089862;28;20036;-80
2023/07/17 07:26:55;;;;;;;15.80;4.80;;;18.70;99.90;;;;;;5115691;28;20044;-80
2023/07/17 07:29:23;;;;;;;12.38;5.13;;;18.70;99.90;;;;;;5112624;28;20063;-80
2023/07/17 07:31:49;;;;;;;13.88;4.15;;;18.70;99.90;;;;;;5096214;28;20040;-79
2023/07/17 07:34:15;;;;;;;9.57;4.03;;;18.50;99.90;;;;;;5098970;28;20459;-79
2023/07/17 07:36:41;;;;;;;11.20;3.67;;;18.40;99.90;;;;;;5080424;28;20043;-78
2023/07/17 07:39:06;;;;;;;8.82;3.67;;;18.20;99.90;;;;;;5085848;28;20500;-77
2023/07/17 07:41:33;;;;;;;9.90;3.95;;;18.10;99.90;;;;;;5102673;28;20405;-80
2023/07/17 07:43:59;;;;;;;12.40;3.53;;;18.00;99.90;;;;;;5120085;28;20099;-79
2023/07/17 07:46:25;;;;;;;9.95;3.85;;;17.90;99.90;;;;;;5118059;28;20518;-78
2023/07/17 07:48:51;;;;;;;16.20;4.28;;;17.90;99.90;;;;;;5102490;28;20180;-80
2023/07/17 07:51:16;;;;;;;12.20;3.53;;;17.80;99.90;;;;;;5103152;28;20036;-81
2023/07/17 07:53:42;;;;;;;13.40;3.78;;;17.80;99.90;;;;;;5106857;28;20035;-80
2023/07/17 07:56:07;;;;;;;8.07;3.85;;;18.00;99.90;;;;;;5119236;28;20137;-81
2023/07/17 07:58:33;;;;;;;9.98;4.07;;;18.20;99.90;;;;;;5100797;28;20048;-81
2023/07/17 08:00:59;;;;;;;7.68;3.65;;;18.40;99.90;;;;;;5118782;28;20127;-82
2023/07/17 08:03:25;;;;;;;8.77;4.30;;;18.50;99.90;;;;;;5100073;28;20121;-80
2023/07/17 08:05:50;;;;;;;12.30;4.15;;;18.70;99.90;;;;;;5106324;28;20048;-80
2023/07/17 08:08:16;;;;;;;12.10;3.95;;;18.80;99.90;;;;;;5082993;28;20063;-81
2023/07/17 08:10:42;;;;;;;15.25;4.32;;;19.00;99.90;;;;;;5093328;28;20118;-80
2023/07/17 08:13:07;;;;;;;11.52;3.85;;;19.00;99.90;;;;;;5082844;28;20047;-81
2023/07/17 08:15:33;;;;;;;21.65;5.50;;;19.20;99.90;;;;;;5089379;28;20036;-80
2023/07/17 08:17:59;;;;;;;10.63;4.30;;;19.20;99.90;;;;;;5103407;28;20070;-79
2023/07/17 08:20:24;;;;;;;13.63;4.22;;;19.40;99.90;;;;;;5101189;28;20055;-78
2023/07/17 08:22:54;;;;;;;10.57;3.97;;;19.80;99.90;;;;;;5098129;28;20048;-78
2023/07/17 08:25:23;;;;;;;14.52;4.85;;;19.70;99.90;;;;;;5091982;28;20032;-79
2023/07/17 08:27:51;;;;;;;13.32;4.65;;;19.80;99.90;;;;;;5089899;28;20036;-80
2023/07/17 08:30:17;;;;;;;11.75;3.83;;;19.90;99.90;;;;;;5098150;28;20036;-78
2023/07/17 08:32:42;;;;;;;11.45;3.83;;;19.90;99.90;;;;;;5100008;28;20051;-80
2023/07/17 08:35:08;;;;;;;15.65;4.15;;;20.00;99.90;;;;;;5103225;28;20036;-79
2023/07/17 08:37:34;;;;;;;9.38;3.75;;;20.00;99.90;;;;;;5102434;28;20139;-79
2023/07/17 08:40:00;;;;;;;12.82;4.15;;;20.20;99.90;;;;;;5100439;28;20131;-79
2023/07/17 08:42:25;;;;;;;11.27;3.40;;;20.30;99.90;;;;;;5093087;28;20139;-79
2023/07/17 08:44:52;;;;;;;14.05;3.80;;;20.40;99.90;;;;;;5085491;28;20039;-77
2023/07/17 08:47:20;;;;;;;10.88;3.67;;;20.50;99.90;;;;;;5096696;28;20093;-79
2023/07/17 08:49:47;;;;;;;8.73;3.90;;;20.50;99.90;;;;;;5101645;28;20603;-79
2023/07/17 08:52:14;;;;;;;15.35;4.05;;;20.40;99.90;;;;;;5094562;28;20082;-78
2023/07/17 08:54:40;;;;;;;10.00;4.18;;;20.20;99.90;;;;;;5099581;28;20064;-78
2023/07/17 08:57:06;;;;;;;10.27;3.47;;;20.10;99.90;;;;;;5107535;28;20050;-79
2023/07/17 08:59:34;;;;;;;9.90;3.85;;;20.00;99.90;;;;;;5105728;28;20036;-78
2023/07/17 09:02:00;;;;;;;13.88;4.45;;;20.00;99.90;;;;;;5105451;28;20031;-79
2023/07/17 09:04:28;;;;;;;12.38;3.50;;;20.20;99.90;;;;;;5104857;28;20098;-79
2023/07/17 09:06:54;;;;;;;12.65;3.92;;;20.40;99.90;;;;;;5089121;28;20043;-77
2023/07/17 09:09:20;;;;;;;13.63;3.53;;;20.50;99.90;;;;;;5107627;28;20122;-77
2023/07/17 09:11:46;;;;;;;8.73;2.88;;;20.60;99.90;;;;;;5115293;28;20427;-78
2023/07/17 09:14:12;;;;;;;10.85;2.92;;;20.70;99.90;;;;;;5110072;28;20111;-77
2023/07/17 09:16:39;;;;;;;14.23;3.15;;;20.70;99.90;;;;;;5112702;28;20483;-78
2023/07/17 09:19:05;;;;;;;7.03;2.53;;;20.60;99.40;;;;;;5095431;28;20047;-77
2023/07/17 09:21:30;;;;;;;8.82;2.95;;;20.60;99.70;;;;;;5108211;28;20482;-77
2023/07/17 09:23:57;;;;;;;8.77;3.08;;;20.70;98.30;;;;;;5114039;28;21520;-76
2023/07/17 09:26:25;;;;;;;9.43;2.85;;;20.80;98.60;;;;;;5099365;28;20044;-79
2023/07/17 09:28:56;;;;;;;8.75;3.10;;;21.00;98.80;;;;;;5116190;28;20061;-76
2023/07/17 09:31:27;;;;;;;9.73;2.88;;;21.10;98.30;;;;;;5110283;28;20046;-77
2023/07/17 09:33:54;;;;;;;8.23;2.75;;;21.10;98.10;;;;;;5096964;28;20055;-78
2023/07/17 09:36:23;;;;;;;7.55;2.47;;;21.20;98.00;;;;;;5110388;28;20500;-78
2023/07/17 09:38:51;;;;;;;6.35;2.63;;;21.30;97.40;;;;;;5115991;28;20032;-77
2023/07/17 09:41:24;;;;;;;9.45;2.65;;;21.40;95.80;;;;;;5107809;28;20054;-77
2023/07/17 09:44:00;;;;;;;13.77;2.65;;;21.40;95.40;;;;;;5114173;28;20031;-78
2023/07/17 09:46:34;;;;;;;9.38;3.35;;;21.50;96.40;;;;;;5094808;28;20489;-75
2023/07/17 09:49:01;;;;;;;8.70;2.78;;;21.60;96.50;;;;;;5098143;28;20130;-77
2023/07/17 09:51:27;;;;;;;15.18;3.08;;;21.80;96.00;;;;;;5108604;28;20039;-77
2023/07/17 09:53:55;;;;;;;7.00;2.63;;;21.90;94.60;;;;;;5112878;28;20084;-76
2023/07/17 09:56:21;;;;;;;8.95;2.60;;;21.90;95.10;;;;;;5110774;28;20052;-76
2023/07/17 09:58:51;;;;;;;9.60;2.60;;;22.00;95.20;;;;;;5116992;28;20054;-76
2023/07/17 10:01:25;;;;;;;11.10;3.28;;;21.90;94.50;;;;;;5117892;28;20035;-77
2023/07/17 10:03:51;;;;;;;11.85;2.60;;;22.00;94.80;;;;;;5115435;28;20049;-77
2023/07/17 10:06:18;;;;;;;9.00;2.70;;;22.10;95.30;;;;;;5097366;28;20036;-77
2023/07/17 10:08:50;;;;;;;7.35;3.15;;;22.10;94.70;;;;;;5112948;28;20122;-77
2023/07/17 10:11:17;;;;;;;6.35;2.58;;;21.90;94.70;;;;;;5113101;28;20045;-76
2023/07/17 10:13:44;;;;;;;12.07;3.25;;;21.90;95.00;;;;;;5091982;28;20058;-77
2023/07/17 10:16:13;;;;;;;9.77;3.05;;;21.80;94.90;;;;;;5098450;28;20126;-78
2023/07/17 10:18:50;;;;;;;8.02;3.15;;;21.70;94.80;;;;;;5112539;27;20039;-78
2023/07/17 10:21:17;;;;;;;11.38;2.72;;;21.50;95.20;;;;;;5097658;28;20047;-78
2023/07/17 10:23:43;;;;;;;;;;;21.50;95.40;;;;;;5106876;28;20035;-80
2023/07/17 10:26:11;;;;;;;8.60;2.88;;;21.50;95.10;;;;;;5099849;28;19920;-79
2023/07/17 10:28:37;;;;;;;7.85;2.53;;;21.60;95.00;;;;;;5110851;28;20404;-79
2023/07/17 10:31:23;;;;;;;9.65;2.40;;;21.70;94.90;;;;;;5100596;28;20070;-78
2023/07/17 10:33:53;;;;;;;9.23;2.88;;;21.50;95.10;;;;;;5101362;28;20036;-78
2023/07/17 10:36:36;;;;;;;12.35;2.70;;;21.40;95.10;;;;;;5114190;28;20032;-78
2023/07/17 10:39:04;;;;;;;6.95;2.42;;;21.50;95.30;;;;;;5117285;28;20043;-79
2023/07/17 10:41:30;;;;;;;9.25;2.38;;;21.80;94.70;;;;;;5119285;28;20047;-80
2023/07/17 10:44:03;;;;;;;8.10;2.70;;;21.80;94.40;;;;;;5108927;28;20071;-77
2023/07/17 10:46:33;;;;;;;6.18;2.30;;;21.70;93.80;;;;;;5104022;28;20032;-78
2023/07/17 10:49:06;;;;;;;5.70;2.05;;;21.60;94.60;;;;;;5092686;28;20051;-78
2023/07/17 10:51:33;;;;;;;6.97;2.38;;;21.50;94.60;;;;;;5108990;28;20046;-79
2023/07/17 10:53:58;;;;;;;7.60;2.30;;;21.50;93.90;;;;;;5117964;28;20039;-78
2023/07/17 10:56:25;;;;;;;10.57;2.40;;;21.30;93.90;;;;;;5119496;28;20068;-78
2023/07/17 10:58:51;;;;;;;6.63;2.63;;;21.20;93.80;;;;;;5117170;28;20115;-78
2023/07/17 11:01:17;;;;;;;9.88;2.35;;;21.10;94.00;;;;;;5118804;28;20378;-79
2023/07/17 11:03:47;;;;;;;9.93;2.38;;;21.20;94.40;;;;;;5114827;28;20036;-78
2023/07/17 11:06:18;;;;;;;6.63;2.63;;;21.50;94.20;;;;;;5111643;28;20460;-79
2023/07/17 11:08:49;;;;;;;11.50;2.47;;;21.90;94.00;;;;;;5095961;28;20058;-79
2023/07/17 11:11:15;;;;;;;14.85;2.83;;;22.20;93.70;;;;;;5095510;28;20040;-79
2023/07/17 11:13:44;;;;;;;8.30;2.55;;;22.50;93.20;;;;;;5107633;28;20032;-77
2023/07/17 11:16:10;;;;;;;4.88;2.40;;;22.60;92.20;;;;;;5102406;28;20036;-78
2023/07/17 11:18:49;;;;;;;9.15;2.58;;;22.70;92.90;;;;;;5098083;28;20079;-80
2023/07/17 11:21:16;;;;;;;8.20;2.20;;;23.00;92.40;;;;;;5092062;28;20130;-80
2023/07/17 11:23:54;;;;;;;8.20;2.70;;;23.20;92.10;;;;;;5092319;28;20051;-78
2023/07/17 11:26:34;;;;;;;6.15;2.22;;;23.60;92.10;;;;;;5112983;28;20085;-78
2023/07/17 11:29:01;;;;;;;8.57;2.20;;;24.00;91.40;;;;;;5124390;28;20048;-78
2023/07/17 11:31:31;;;;;;;7.57;2.40;;;24.00;91.10;;;;;;5123619;28;20035;-78
2023/07/17 11:33:59;;;;;;;5.32;2.40;;;23.90;90.70;;;;;;5121144;28;20491;-79
2023/07/17 11:36:32;;;;;;;;;;;23.90;90.10;;;;;;5092884;28;20079;-80
2023/07/17 11:39:10;;;;;;;7.28;2.25;;;23.90;89.90;;;;;;5101210;28;19920;-79
2023/07/17 11:41:47;;;;;;;6.72;2.78;;;23.80;89.90;;;;;;5120606;28;20089;-79
2023/07/17 11:44:25;;;;;;;6.72;2.40;;;23.50;88.40;;;;;;5120701;28;20047;-80
2023/07/17 11:46:56;;;;;;;7.78;2.22;;;23.10;89.70;;;;;;5106305;28;20044;-79
2023/07/17 11:49:25;;;;;;;7.47;2.58;;;23.00;90.10;;;;;;5079817;28;20051;-78
2023/07/17 11:51:51;;;;;;;18.48;3.15;;;22.90;90.50;;;;;;5115101;28;20044;-78
2023/07/17 11:54:16;;;;;;;7.05;2.72;;;22.80;90.60;;;;;;5114117;28;20100;-78
2023/07/17 11:56:44;;;;;;;6.50;2.80;;;23.00;90.90;;;;;;5113323;28;20118;-79
2023/07/17 11:59:16;;;;;;;10.50;2.55;;;23.10;90.90;;;;;;5111197;28;20104;-77
2023/07/17 12:01:42;;;;;;;9.75;2.30;;;23.10;90.80;;;;;;5112234;28;20490;-79
2023/07/17 12:04:20;;;;;;;5.85;2.08;;;23.20;91.00;;;;;;5114239;28;20050;-79
2023/07/17 12:06:46;;;;;;;5.30;2.15;;;23.20;90.40;;;;;;5108333;28;20036;-78
2023/07/17 12:09:12;;;;;;;11.00;2.97;;;23.10;90.20;;;;;;5113721;28;20401;-78
2023/07/17 12:11:39;;;;;;;6.18;1.98;;;23.20;90.00;;;;;;5107876;28;20044;-78
2023/07/17 12:14:05;;;;;;;8.30;2.38;;;23.20;89.30;;;;;;5116919;27;20092;-78
2023/07/17 12:16:31;;;;;;;9.38;2.80;;;22.90;89.60;;;;;;5099807;28;20130;-79
2023/07/17 12:18:56;;;;;;;6.90;2.60;;;22.50;92.00;;;;;;5115381;28;20111;-78
2023/07/17 12:21:22;;;;;;;8.05;2.90;;;22.00;93.80;;;;;;5112762;28;20039;-79
2023/07/17 12:23:48;;;;;;;8.05;2.90;;;21.60;95.50;;;;;;5078540;28;20393;-80
2023/07/17 12:26:13;;;;;;;8.30;2.65;;;21.60;97.70;;;;;;5086712;28;20404;-81
2023/07/17 12:28:39;;;;;;;6.72;2.42;;;21.90;97.60;;;;;;5096134;28;20032;-80
2023/07/17 12:31:05;;;;;;;18.38;3.20;;;22.30;97.60;;;;;;5085324;28;20079;-80
2023/07/17 12:33:30;;;;;;;10.50;3.13;;;22.60;96.90;;;;;;5121944;28;20044;-78
2023/07/17 12:35:56;;;;;;;11.88;2.85;;;23.00;96.70;;;;;;5122537;28;20040;-80
2023/07/17 12:38:22;;;;;;;10.32;2.72;;;23.40;96.50;;;;;;5101524;28;20032;-78
2023/07/17 12:40:49;;;;;;;6.40;2.40;;;23.70;96.00;;;;;;5118818;28;20116;-78